sensor_id;sensor_type;location;lat;lon;timestamp;temperature;humidity
66343;DHT22;53144;51.524;5.080;2022-11-15T00:01:28;7.65;97.62
66343;DHT22;53144;51.524;5.080;2022-11-15T00:03:53;7.67;97.52
66343;DHT22;53144;51.524;5.080;2022-11-15T00:06:19;7.71;97.70
66343;DHT22;53144;51.524;5.080;2022-11-15T00:08:44;7.76;97.62
66343;DHT22;53144;51.524;5.080;2022-11-15T00:11:10;7.81;97.56
66343;DHT22;53144;51.524;5.080;2022-11-15T00:13:36;7.87;97.57
66343;DHT22;53144;51.524;5.080;2022-11-15T00:16:02;7.84;97.47
66343;DHT22;53144;51.524;5.080;2022-11-15T00:18:28;7.87;97.56
66343;DHT22;53144;51.524;5.080;2022-11-15T00:20:54;7.86;97.59
66343;DHT22;53144;51.524;5.080;2022-11-15T00:23:19;7.90;97.65
66343;DHT22;53144;51.524;5.080;2022-11-15T00:25:45;7.91;97.68
66343;DHT22;53144;51.524;5.080;2022-11-15T00:28:10;8.00;97.62
66343;DHT22;53144;51.524;5.080;2022-11-15T00:30:35;7.97;97.64
66343;DHT22;53144;51.524;5.080;2022-11-15T00:33:02;8.05;97.68
66343;DHT22;53144;51.524;5.080;2022-11-15T00:35:27;8.07;97.59
66343;DHT22;53144;51.524;5.080;2022-11-15T00:37:53;8.08;97.54
66343;DHT22;53144;51.524;5.080;2022-11-15T00:40:18;8.10;97.70
66343;DHT22;53144;51.524;5.080;2022-11-15T00:42:44;8.14;97.69
66343;DHT22;53144;51.524;5.080;2022-11-15T00:45:09;8.11;97.68
66343;DHT22;53144;51.524;5.080;2022-11-15T00:47:35;8.15;97.94
66343;DHT22;53144;51.524;5.080;2022-11-15T00:50:00;8.21;97.75
66343;DHT22;53144;51.524;5.080;2022-11-15T00:52:25;8.31;97.75
66343;DHT22;53144;51.524;5.080;2022-11-15T00:54:51;8.31;97.73
66343;DHT22;53144;51.524;5.080;2022-11-15T00:57:16;8.38;97.86
66343;DHT22;53144;51.524;5.080;2022-11-15T00:59:41;8.48;97.83
66343;DHT22;53144;51.524;5.080;2022-11-15T01:02:07;8.52;97.83
66343;DHT22;53144;51.524;5.080;2022-11-15T01:04:32;8.58;97.99
66343;DHT22;53144;51.524;5.080;2022-11-15T01:06:57;8.70;98.10
66343;DHT22;53144;51.524;5.080;2022-11-15T01:09:22;8.76;98.13
66343;DHT22;53144;51.524;5.080;2022-11-15T01:11:48;8.81;98.29
66343;DHT22;53144;51.524;5.080;2022-11-15T01:14:13;8.83;98.22
66343;DHT22;53144;51.524;5.080;2022-11-15T01:16:39;8.97;98.51
66343;DHT22;53144;51.524;5.080;2022-11-15T01:19:18;9.14;98.52
66343;DHT22;53144;51.524;5.080;2022-11-15T01:21:53;9.28;98.46
66343;DHT22;53144;51.524;5.080;2022-11-15T01:24:18;9.37;98.37
66343;DHT22;53144;51.524;5.080;2022-11-15T01:26:43;9.48;98.31
66343;DHT22;53144;51.524;5.080;2022-11-15T01:29:09;9.57;98.20
66343;DHT22;53144;51.524;5.080;2022-11-15T01:31:34;9.62;98.05
66343;DHT22;53144;51.524;5.080;2022-11-15T01:36:52;9.72;97.90
66343;DHT22;53144;51.524;5.080;2022-11-15T01:39:17;9.77;98.00
66343;DHT22;53144;51.524;5.080;2022-11-15T01:41:46;9.81;98.05
66343;DHT22;53144;51.524;5.080;2022-11-15T01:47:01;9.96;97.80
66343;DHT22;53144;51.524;5.080;2022-11-15T01:49:31;10.02;97.82
66343;DHT22;53144;51.524;5.080;2022-11-15T01:54:44;10.09;97.75
66343;DHT22;53144;51.524;5.080;2022-11-15T01:59:56;10.20;97.54
66343;DHT22;53144;51.524;5.080;2022-11-15T02:02:22;10.27;97.56
66343;DHT22;53144;51.524;5.080;2022-11-15T02:04:55;10.30;97.49
66343;DHT22;53144;51.524;5.080;2022-11-15T02:07:23;10.34;97.34
66343;DHT22;53144;51.524;5.080;2022-11-15T02:09:58;10.41;97.22
66343;DHT22;53144;51.524;5.080;2022-11-15T02:12:29;10.44;97.16
66343;DHT22;53144;51.524;5.080;2022-11-15T02:14:55;10.43;97.11
66343;DHT22;53144;51.524;5.080;2022-11-15T02:41:40;10.69;96.64
66343;DHT22;53144;51.524;5.080;2022-11-15T02:44:08;10.68;96.61
66343;DHT22;53144;51.524;5.080;2022-11-15T02:46:59;10.72;96.50
66343;DHT22;53144;51.524;5.080;2022-11-15T02:49:50;10.69;96.78
66343;DHT22;53144;51.524;5.080;2022-11-15T02:55:27;10.79;96.57
66343;DHT22;53144;51.524;5.080;2022-11-15T03:00:52;10.85;96.39
66343;DHT22;53144;51.524;5.080;2022-11-15T03:06:25;10.79;96.58
66343;DHT22;53144;51.524;5.080;2022-11-15T03:08:57;10.78;96.72
66343;DHT22;53144;51.524;5.080;2022-11-15T03:11:26;10.85;96.62
66343;DHT22;53144;51.524;5.080;2022-11-15T03:19:08;10.88;96.58
66343;DHT22;53144;51.524;5.080;2022-11-15T03:21:36;10.88;96.63
66343;DHT22;53144;51.524;5.080;2022-11-15T03:24:04;10.89;96.61
66343;DHT22;53144;51.524;5.080;2022-11-15T03:26:34;10.86;96.65
66343;DHT22;53144;51.524;5.080;2022-11-15T03:29:13;10.84;96.76
66343;DHT22;53144;51.524;5.080;2022-11-15T03:31:44;10.79;96.71
66343;DHT22;53144;51.524;5.080;2022-11-15T03:34:20;10.77;96.77
66343;DHT22;53144;51.524;5.080;2022-11-15T03:36:47;10.74;96.72
66343;DHT22;53144;51.524;5.080;2022-11-15T03:39:17;10.67;96.94
66343;DHT22;53144;51.524;5.080;2022-11-15T03:47:18;10.64;97.13
66343;DHT22;53144;51.524;5.080;2022-11-15T03:49:46;10.57;97.14
66343;DHT22;53144;51.524;5.080;2022-11-15T03:52:16;10.54;97.20
66343;DHT22;53144;51.524;5.080;2022-11-15T03:54:49;10.48;97.27
66343;DHT22;53144;51.524;5.080;2022-11-15T03:57:17;10.56;97.40
66343;DHT22;53144;51.524;5.080;2022-11-15T03:59:45;10.57;97.56
66343;DHT22;53144;51.524;5.080;2022-11-15T04:02:10;10.58;97.57
66343;DHT22;53144;51.524;5.080;2022-11-15T04:04:57;10.63;97.70
66343;DHT22;53144;51.524;5.080;2022-11-15T04:07:21;10.65;97.67
66343;DHT22;53144;51.524;5.080;2022-11-15T04:09:47;10.67;97.71
66343;DHT22;53144;51.524;5.080;2022-11-15T04:12:28;10.64;97.65
66343;DHT22;53144;51.524;5.080;2022-11-15T04:15:03;10.67;97.58
66343;DHT22;53144;51.524;5.080;2022-11-15T04:17:34;10.64;97.66
66343;DHT22;53144;51.524;5.080;2022-11-15T04:20:03;10.64;97.76
66343;DHT22;53144;51.524;5.080;2022-11-15T04:22:47;10.71;97.79
66343;DHT22;53144;51.524;5.080;2022-11-15T04:25:31;10.74;97.80
66343;DHT22;53144;51.524;5.080;2022-11-15T04:27:57;10.74;97.77
66343;DHT22;53144;51.524;5.080;2022-11-15T04:30:25;10.75;97.81
66343;DHT22;53144;51.524;5.080;2022-11-15T04:32:51;10.81;97.82
66343;DHT22;53144;51.524;5.080;2022-11-15T04:35:17;10.81;97.85
66343;DHT22;53144;51.524;5.080;2022-11-15T04:37:42;10.85;97.74
66343;DHT22;53144;51.524;5.080;2022-11-15T04:40:07;10.85;97.75
66343;DHT22;53144;51.524;5.080;2022-11-15T04:42:33;10.88;97.66
66343;DHT22;53144;51.524;5.080;2022-11-15T04:44:59;10.94;97.70
66343;DHT22;53144;51.524;5.080;2022-11-15T04:47:24;10.98;97.44
66343;DHT22;53144;51.524;5.080;2022-11-15T04:49:50;10.98;97.38
66343;DHT22;53144;51.524;5.080;2022-11-15T04:52:15;10.99;97.37
66343;DHT22;53144;51.524;5.080;2022-11-15T04:54:46;11.01;97.38
66343;DHT22;53144;51.524;5.080;2022-11-15T04:57:14;11.06;97.16
66343;DHT22;53144;51.524;5.080;2022-11-15T04:59:52;11.04;97.09
66343;DHT22;53144;51.524;5.080;2022-11-15T05:02:17;11.08;97.05
66343;DHT22;53144;51.524;5.080;2022-11-15T05:04:43;11.05;97.13
66343;DHT22;53144;51.524;5.080;2022-11-15T05:07:17;11.08;97.02
66343;DHT22;53144;51.524;5.080;2022-11-15T05:09:42;11.05;97.02
66343;DHT22;53144;51.524;5.080;2022-11-15T05:12:08;10.99;97.23
66343;DHT22;53144;51.524;5.080;2022-11-15T05:14:41;10.99;97.20
66343;DHT22;53144;51.524;5.080;2022-11-15T05:17:06;11.02;97.13
66343;DHT22;53144;51.524;5.080;2022-11-15T05:19:31;10.98;97.22
66343;DHT22;53144;51.524;5.080;2022-11-15T05:21:57;10.95;97.30
66343;DHT22;53144;51.524;5.080;2022-11-15T05:24:22;10.95;97.25
66343;DHT22;53144;51.524;5.080;2022-11-15T05:26:47;10.92;97.16
66343;DHT22;53144;51.524;5.080;2022-11-15T05:29:15;10.92;97.27
66343;DHT22;53144;51.524;5.080;2022-11-15T05:31:40;10.92;97.08
66343;DHT22;53144;51.524;5.080;2022-11-15T05:34:08;10.88;97.20
66343;DHT22;53144;51.524;5.080;2022-11-15T05:36:36;10.84;97.11
66343;DHT22;53144;51.524;5.080;2022-11-15T05:39:03;10.88;97.20
66343;DHT22;53144;51.524;5.080;2022-11-15T05:41:34;10.91;97.11
66343;DHT22;53144;51.524;5.080;2022-11-15T05:44:01;10.92;97.02
66343;DHT22;53144;51.524;5.080;2022-11-15T05:46:27;10.94;96.98
66343;DHT22;53144;51.524;5.080;2022-11-15T05:48:53;10.91;96.94
66343;DHT22;53144;51.524;5.080;2022-11-15T05:51:21;10.84;97.05
66343;DHT22;53144;51.524;5.080;2022-11-15T05:53:47;10.84;97.15
66343;DHT22;53144;51.524;5.080;2022-11-15T05:56:13;10.85;97.06
66343;DHT22;53144;51.524;5.080;2022-11-15T05:58:41;10.88;96.93
66343;DHT22;53144;51.524;5.080;2022-11-15T06:01:07;10.85;96.87
66343;DHT22;53144;51.524;5.080;2022-11-15T06:03:32;10.84;96.94
66343;DHT22;53144;51.524;5.080;2022-11-15T06:05:57;10.82;96.97
66343;DHT22;53144;51.524;5.080;2022-11-15T06:08:23;10.84;96.99
66343;DHT22;53144;51.524;5.080;2022-11-15T06:13:38;10.89;96.76
66343;DHT22;53144;51.524;5.080;2022-11-15T06:16:06;10.86;96.89
66343;DHT22;53144;51.524;5.080;2022-11-15T06:18:32;10.84;96.87
66343;DHT22;53144;51.524;5.080;2022-11-15T06:21:00;10.85;96.88
66343;DHT22;53144;51.524;5.080;2022-11-15T06:23:25;10.85;96.96
66343;DHT22;53144;51.524;5.080;2022-11-15T06:25:51;10.81;96.90
66343;DHT22;53144;51.524;5.080;2022-11-15T06:28:16;10.88;96.62
66343;DHT22;53144;51.524;5.080;2022-11-15T06:30:42;10.85;96.53
66343;DHT22;53144;51.524;5.080;2022-11-15T06:33:07;10.79;96.65
66343;DHT22;53144;51.524;5.080;2022-11-15T06:35:34;10.78;96.75
66343;DHT22;53144;51.524;5.080;2022-11-15T06:38:07;10.77;96.74
66343;DHT22;53144;51.524;5.080;2022-11-15T06:40:33;10.72;96.97
66343;DHT22;53144;51.524;5.080;2022-11-15T06:43:03;10.71;96.91
66343;DHT22;53144;51.524;5.080;2022-11-15T06:45:29;10.69;96.82
66343;DHT22;53144;51.524;5.080;2022-11-15T06:47:54;10.64;97.05
66343;DHT22;53144;51.524;5.080;2022-11-15T06:50:20;10.61;96.94
66343;DHT22;53144;51.524;5.080;2022-11-15T06:52:45;10.57;96.93
66343;DHT22;53144;51.524;5.080;2022-11-15T06:55:11;10.56;96.94
66343;DHT22;53144;51.524;5.080;2022-11-15T06:57:36;10.54;96.97
66343;DHT22;53144;51.524;5.080;2022-11-15T07:00:07;10.54;97.03
66343;DHT22;53144;51.524;5.080;2022-11-15T07:02:32;10.50;97.12
66343;DHT22;53144;51.524;5.080;2022-11-15T07:04:58;10.47;97.30
66343;DHT22;53144;51.524;5.080;2022-11-15T07:07:23;10.43;97.29
66343;DHT22;53144;51.524;5.080;2022-11-15T07:09:49;10.46;97.26
66343;DHT22;53144;51.524;5.080;2022-11-15T07:12:14;10.36;97.27
66343;DHT22;53144;51.524;5.080;2022-11-15T07:14:45;10.38;97.40
66343;DHT22;53144;51.524;5.080;2022-11-15T07:17:11;10.32;97.41
66343;DHT22;53144;51.524;5.080;2022-11-15T07:19:43;10.30;97.49
66343;DHT22;53144;51.524;5.080;2022-11-15T07:22:09;10.27;97.61
66343;DHT22;53144;51.524;5.080;2022-11-15T07:24:34;10.24;97.75
66343;DHT22;53144;51.524;5.080;2022-11-15T07:26:59;10.24;97.85
66343;DHT22;53144;51.524;5.080;2022-11-15T07:29:25;10.29;97.96
66343;DHT22;53144;51.524;5.080;2022-11-15T07:31:50;10.33;98.13
66343;DHT22;53144;51.524;5.080;2022-11-15T07:34:25;10.37;98.19
66343;DHT22;53144;51.524;5.080;2022-11-15T07:36:52;10.38;98.34
66343;DHT22;53144;51.524;5.080;2022-11-15T07:39:23;10.41;98.20
66343;DHT22;53144;51.524;5.080;2022-11-15T07:41:48;10.41;98.14
66343;DHT22;53144;51.524;5.080;2022-11-15T07:44:26;10.38;98.00
66343;DHT22;53144;51.524;5.080;2022-11-15T07:46:55;10.37;97.80
66343;DHT22;53144;51.524;5.080;2022-11-15T07:49:39;10.41;97.65
66343;DHT22;53144;51.524;5.080;2022-11-15T07:52:07;10.40;97.46
66343;DHT22;53144;51.524;5.080;2022-11-15T07:57:24;10.40;97.35
66343;DHT22;53144;51.524;5.080;2022-11-15T07:59:59;10.41;97.25
66343;DHT22;53144;51.524;5.080;2022-11-15T08:02:34;10.43;97.12
66343;DHT22;53144;51.524;5.080;2022-11-15T08:08:22;10.37;96.23
66343;DHT22;53144;51.524;5.080;2022-11-15T08:10:52;10.30;96.07
66343;DHT22;53144;51.524;5.080;2022-11-15T08:13:21;10.29;96.21
66343;DHT22;53144;51.524;5.080;2022-11-15T08:15:47;10.34;96.22
66343;DHT22;53144;51.524;5.080;2022-11-15T08:18:20;10.30;96.11
66343;DHT22;53144;51.524;5.080;2022-11-15T08:20:45;10.33;96.13
66343;DHT22;53144;51.524;5.080;2022-11-15T08:26:25;10.37;96.02
66343;DHT22;53144;51.524;5.080;2022-11-15T08:31:54;10.57;95.75
66343;DHT22;53144;51.524;5.080;2022-11-15T08:34:30;10.56;95.70
66343;DHT22;53144;51.524;5.080;2022-11-15T08:37:00;10.61;95.48
66343;DHT22;53144;51.524;5.080;2022-11-15T08:39:26;10.65;95.00
66343;DHT22;53144;51.524;5.080;2022-11-15T08:44:46;10.74;94.58
66343;DHT22;53144;51.524;5.080;2022-11-15T08:47:11;10.78;94.82
66343;DHT22;53144;51.524;5.080;2022-11-15T08:49:48;10.81;94.68
66343;DHT22;53144;51.524;5.080;2022-11-15T08:52:16;10.84;94.21
66343;DHT22;53144;51.524;5.080;2022-11-15T08:54:44;10.88;93.97
66343;DHT22;53144;51.524;5.080;2022-11-15T09:00:16;10.84;93.54
66343;DHT22;53144;51.524;5.080;2022-11-15T09:02:53;10.84;93.38
66343;DHT22;53144;51.524;5.080;2022-11-15T09:05:18;10.85;93.36
66343;DHT22;53144;51.524;5.080;2022-11-15T09:07:52;10.88;93.04
66343;DHT22;53144;51.524;5.080;2022-11-15T09:10:20;10.94;93.12
66343;DHT22;53144;51.524;5.080;2022-11-15T09:12:46;10.98;92.07
66343;DHT22;53144;51.524;5.080;2022-11-15T09:15:14;10.96;91.44
66343;DHT22;53144;51.524;5.080;2022-11-15T09:17:47;10.98;91.23
66343;DHT22;53144;51.524;5.080;2022-11-15T09:20:25;10.96;90.66
66343;DHT22;53144;51.524;5.080;2022-11-15T09:22:54;11.01;90.69
66343;DHT22;53144;51.524;5.080;2022-11-15T09:25:20;11.01;90.44
66343;DHT22;53144;51.524;5.080;2022-11-15T09:27:51;11.01;90.00
66343;DHT22;53144;51.524;5.080;2022-11-15T09:30:17;11.09;89.21
66343;DHT22;53144;51.524;5.080;2022-11-15T09:32:48;11.12;89.50
66343;DHT22;53144;51.524;5.080;2022-11-15T09:35:15;11.15;88.81
66343;DHT22;53144;51.524;5.080;2022-11-15T09:37:42;11.29;88.94
66343;DHT22;53144;51.524;5.080;2022-11-15T09:40:19;11.39;87.78
66343;DHT22;53144;51.524;5.080;2022-11-15T09:50:42;11.66;85.22
66343;DHT22;53144;51.524;5.080;2022-11-15T09:53:20;11.52;85.80
66343;DHT22;53144;51.524;5.080;2022-11-15T09:55:55;11.39;86.48
66343;DHT22;53144;51.524;5.080;2022-11-15T09:58:33;11.50;85.43
66343;DHT22;53144;51.524;5.080;2022-11-15T10:01:10;12.01;84.74
66343;DHT22;53144;51.524;5.080;2022-11-15T10:03:52;12.45;82.11
66343;DHT22;53144;51.524;5.080;2022-11-15T10:06:24;12.36;81.59
66343;DHT22;53144;51.524;5.080;2022-11-15T10:08:52;12.08;83.03
66343;DHT22;53144;51.524;5.080;2022-11-15T10:11:23;11.97;83.40
66343;DHT22;53144;51.524;5.080;2022-11-15T10:14:24;11.94;83.26
66343;DHT22;53144;51.524;5.080;2022-11-15T10:25:29;11.90;83.43
66343;DHT22;53144;51.524;5.080;2022-11-15T10:28:11;11.77;82.91
66343;DHT22;53144;51.524;5.080;2022-11-15T10:30:49;11.88;82.36
66343;DHT22;53144;51.524;5.080;2022-11-15T10:35:46;12.56;79.38
66343;DHT22;53144;51.524;5.080;2022-11-15T10:38:21;12.83;78.51
66343;DHT22;53144;51.524;5.080;2022-11-15T10:40:46;13.20;77.97
66343;DHT22;53144;51.524;5.080;2022-11-15T10:43:20;13.41;77.33
66343;DHT22;53144;51.524;5.080;2022-11-15T10:45:49;13.34;76.49
66343;DHT22;53144;51.524;5.080;2022-11-15T10:50:46;12.84;76.94
66343;DHT22;53144;51.524;5.080;2022-11-15T10:53:27;12.72;78.67
66343;DHT22;53144;51.524;5.080;2022-11-15T10:56:04;12.50;78.59
66343;DHT22;53144;51.524;5.080;2022-11-15T10:58:37;12.63;78.79
66343;DHT22;53144;51.524;5.080;2022-11-15T11:04:07;12.66;78.22
66343;DHT22;53144;51.524;5.080;2022-11-15T11:06:56;12.57;79.10
66343;DHT22;53144;51.524;5.080;2022-11-15T11:12:17;12.55;78.33
66343;DHT22;53144;51.524;5.080;2022-11-15T11:14:55;12.50;78.70
66343;DHT22;53144;51.524;5.080;2022-11-15T11:17:28;12.62;77.88
66343;DHT22;53144;51.524;5.080;2022-11-15T11:20:18;12.57;77.40
66343;DHT22;53144;51.524;5.080;2022-11-15T11:30:47;12.77;78.11
66343;DHT22;53144;51.524;5.080;2022-11-15T11:33:21;12.82;76.85
66343;DHT22;53144;51.524;5.080;2022-11-15T11:44:34;12.96;76.74
66343;DHT22;53144;51.524;5.080;2022-11-15T11:47:10;13.00;76.72
66343;DHT22;53144;51.524;5.080;2022-11-15T11:49:55;13.00;75.96
66343;DHT22;53144;51.524;5.080;2022-11-15T11:57:43;12.97;73.99
66343;DHT22;53144;51.524;5.080;2022-11-15T12:00:21;13.04;74.41
66343;DHT22;53144;51.524;5.080;2022-11-15T12:02:53;13.12;75.19
66343;DHT22;53144;51.524;5.080;2022-11-15T12:05:35;13.12;75.77
66343;DHT22;53144;51.524;5.080;2022-11-15T12:08:25;13.20;72.73
66343;DHT22;53144;51.524;5.080;2022-11-15T12:13:48;13.25;76.22
66343;DHT22;53144;51.524;5.080;2022-11-15T12:16:34;13.32;76.05
66343;DHT22;53144;51.524;5.080;2022-11-15T12:26:48;13.10;73.05
66343;DHT22;53144;51.524;5.080;2022-11-15T12:31:59;12.99;74.38
66343;DHT22;53144;51.524;5.080;2022-11-15T12:34:52;12.89;74.71
66343;DHT22;53144;51.524;5.080;2022-11-15T12:43:00;12.76;73.99
66343;DHT22;53144;51.524;5.080;2022-11-15T12:47:51;12.70;74.30
66343;DHT22;53144;51.524;5.080;2022-11-15T12:51:02;12.69;75.10
66343;DHT22;53144;51.524;5.080;2022-11-15T13:04:51;12.79;74.45
66343;DHT22;53144;51.524;5.080;2022-11-15T13:12:50;12.75;74.76
66343;DHT22;53144;51.524;5.080;2022-11-15T13:21:27;12.80;75.75
66343;DHT22;53144;51.524;5.080;2022-11-15T13:24:20;12.72;76.06
66343;DHT22;53144;51.524;5.080;2022-11-15T13:26:51;12.70;77.68
66343;DHT22;53144;51.524;5.080;2022-11-15T13:29:23;12.67;76.23
66343;DHT22;53144;51.524;5.080;2022-11-15T13:31:48;12.67;77.10
66343;DHT22;53144;51.524;5.080;2022-11-15T13:36:46;12.75;78.94
66343;DHT22;53144;51.524;5.080;2022-11-15T13:39:28;12.63;77.38
66343;DHT22;53144;51.524;5.080;2022-11-15T13:41:56;12.63;78.19
66343;DHT22;53144;51.524;5.080;2022-11-15T13:44:29;12.64;78.78
66343;DHT22;53144;51.524;5.080;2022-11-15T13:47:13;12.66;77.85
66343;DHT22;53144;51.524;5.080;2022-11-15T13:49:59;12.69;77.77
66343;DHT22;53144;51.524;5.080;2022-11-15T13:52:27;12.63;78.79
66343;DHT22;53144;51.524;5.080;2022-11-15T14:00:27;12.49;78.48
66343;DHT22;53144;51.524;5.080;2022-11-15T14:05:43;12.59;81.10
66343;DHT22;53144;51.524;5.080;2022-11-15T14:10:40;12.49;78.79
66343;DHT22;53144;51.524;5.080;2022-11-15T14:13:28;12.50;80.03
66343;DHT22;53144;51.524;5.080;2022-11-15T14:15:52;12.45;80.65
66343;DHT22;53144;51.524;5.080;2022-11-15T14:21:10;12.46;81.05
66343;DHT22;53144;51.524;5.080;2022-11-15T14:23:51;12.49;81.28
66343;DHT22;53144;51.524;5.080;2022-11-15T14:26:32;12.46;80.36
66343;DHT22;53144;51.524;5.080;2022-11-15T14:31:47;12.41;80.69
66343;DHT22;53144;51.524;5.080;2022-11-15T14:34:12;12.41;81.71
66343;DHT22;53144;51.524;5.080;2022-11-15T14:36:44;12.33;81.15
66343;DHT22;53144;51.524;5.080;2022-11-15T14:39:09;12.41;81.17
66343;DHT22;53144;51.524;5.080;2022-11-15T14:41:44;12.42;80.80
66343;DHT22;53144;51.524;5.080;2022-11-15T14:47:03;12.33;82.33
66343;DHT22;53144;51.524;5.080;2022-11-15T14:49:28;12.33;81.17
66343;DHT22;53144;51.524;5.080;2022-11-15T14:51:53;12.26;81.65
66343;DHT22;53144;51.524;5.080;2022-11-15T14:54:20;12.33;80.93
66343;DHT22;53144;51.524;5.080;2022-11-15T14:56:46;12.39;81.40
66343;DHT22;53144;51.524;5.080;2022-11-15T14:59:16;12.35;81.00
66343;DHT22;53144;51.524;5.080;2022-11-15T15:01:41;12.33;80.38
66343;DHT22;53144;51.524;5.080;2022-11-15T15:04:08;12.32;81.30
66343;DHT22;53144;51.524;5.080;2022-11-15T15:06:37;12.28;81.08
66343;DHT22;53144;51.524;5.080;2022-11-15T15:10:19;12.22;81.84
66343;DHT22;53144;51.524;5.080;2022-11-15T15:12:45;12.11;82.69
66343;DHT22;53144;51.524;5.080;2022-11-15T15:17:55;12.12;81.92
66343;DHT22;53144;51.524;5.080;2022-11-15T15:20:20;12.11;81.88
66343;DHT22;53144;51.524;5.080;2022-11-15T15:22:49;12.08;81.74
66343;DHT22;53144;51.524;5.080;2022-11-15T15:25:30;12.01;82.37
66343;DHT22;53144;51.524;5.080;2022-11-15T15:28:12;11.94;83.20
66343;DHT22;53144;51.524;5.080;2022-11-15T15:30:44;11.94;83.26
66343;DHT22;53144;51.524;5.080;2022-11-15T15:33:09;11.97;83.19
66343;DHT22;53144;51.524;5.080;2022-11-15T15:35:36;11.95;82.43
66343;DHT22;53144;51.524;5.080;2022-11-15T15:38:05;11.87;83.20
66343;DHT22;53144;51.524;5.080;2022-11-15T15:40:32;11.87;84.03
66343;DHT22;53144;51.524;5.080;2022-11-15T15:42:58;11.84;83.67
66343;DHT22;53144;51.524;5.080;2022-11-15T15:45:36;11.80;84.32
66343;DHT22;53144;51.524;5.080;2022-11-15T15:48:03;11.81;84.25
66343;DHT22;53144;51.524;5.080;2022-11-15T15:50:33;11.84;84.52
66343;DHT22;53144;51.524;5.080;2022-11-15T15:53:08;11.80;84.92
66343;DHT22;53144;51.524;5.080;2022-11-15T15:55:36;11.77;86.60
66343;DHT22;53144;51.524;5.080;2022-11-15T15:58:04;11.70;86.51
66343;DHT22;53144;51.524;5.080;2022-11-15T16:00:30;11.60;86.96
66343;DHT22;53144;51.524;5.080;2022-11-15T16:03:07;11.59;87.92
66343;DHT22;53144;51.524;5.080;2022-11-15T16:05:33;11.54;87.89
66343;DHT22;53144;51.524;5.080;2022-11-15T16:08:01;11.53;88.63
66343;DHT22;53144;51.524;5.080;2022-11-15T16:10:28;11.47;89.04
66343;DHT22;53144;51.524;5.080;2022-11-15T16:12:55;11.46;88.99
66343;DHT22;53144;51.524;5.080;2022-11-15T16:15:22;11.43;89.62
66343;DHT22;53144;51.524;5.080;2022-11-15T16:20:41;11.30;91.01
66343;DHT22;53144;51.524;5.080;2022-11-15T16:23:14;11.29;91.36
66343;DHT22;53144;51.524;5.080;2022-11-15T16:25:50;11.25;91.82
66343;DHT22;53144;51.524;5.080;2022-11-15T16:28:22;11.16;92.41
66343;DHT22;53144;51.524;5.080;2022-11-15T16:30:48;11.20;92.29
66343;DHT22;53144;51.524;5.080;2022-11-15T16:33:14;11.16;92.44
66343;DHT22;53144;51.524;5.080;2022-11-15T16:35:39;11.12;92.59
66343;DHT22;53144;51.524;5.080;2022-11-15T16:38:05;11.11;92.97
66343;DHT22;53144;51.524;5.080;2022-11-15T16:40:31;11.15;92.81
66343;DHT22;53144;51.524;5.080;2022-11-15T16:42:57;11.14;93.20
66343;DHT22;53144;51.524;5.080;2022-11-15T16:45:24;11.15;93.08
66343;DHT22;53144;51.524;5.080;2022-11-15T16:47:50;11.14;93.21
66343;DHT22;53144;51.524;5.080;2022-11-15T16:50:21;11.08;93.64
66343;DHT22;53144;51.524;5.080;2022-11-15T16:52:51;11.05;93.62
66343;DHT22;53144;51.524;5.080;2022-11-15T16:55:17;11.05;93.92
66343;DHT22;53144;51.524;5.080;2022-11-15T16:57:42;11.01;94.14
66343;DHT22;53144;51.524;5.080;2022-11-15T17:00:13;10.96;94.31
66343;DHT22;53144;51.524;5.080;2022-11-15T17:02:48;11.02;94.22
66343;DHT22;53144;51.524;5.080;2022-11-15T17:05:16;11.01;94.55
66343;DHT22;53144;51.524;5.080;2022-11-15T17:07:42;10.94;94.73
66343;DHT22;53144;51.524;5.080;2022-11-15T17:10:08;10.92;95.05
66343;DHT22;53144;51.524;5.080;2022-11-15T17:12:35;10.95;94.92
66343;DHT22;53144;51.524;5.080;2022-11-15T17:15:09;10.91;95.25
66343;DHT22;53144;51.524;5.080;2022-11-15T17:17:36;10.94;95.17
66343;DHT22;53144;51.524;5.080;2022-11-15T17:20:01;10.85;95.32
66343;DHT22;53144;51.524;5.080;2022-11-15T17:22:36;10.89;95.29
66343;DHT22;53144;51.524;5.080;2022-11-15T17:25:09;10.89;95.40
66343;DHT22;53144;51.524;5.080;2022-11-15T17:27:38;10.89;95.34
66343;DHT22;53144;51.524;5.080;2022-11-15T17:30:24;10.91;95.35
66343;DHT22;53144;51.524;5.080;2022-11-15T17:32:53;10.89;95.48
66343;DHT22;53144;51.524;5.080;2022-11-15T17:35:20;10.91;95.75
66343;DHT22;53144;51.524;5.080;2022-11-15T17:37:48;10.92;95.62
66343;DHT22;53144;51.524;5.080;2022-11-15T17:40:14;10.91;95.66
66343;DHT22;53144;51.524;5.080;2022-11-15T17:42:40;10.94;95.66
66343;DHT22;53144;51.524;5.080;2022-11-15T17:45:08;10.92;95.85
66343;DHT22;53144;51.524;5.080;2022-11-15T17:47:37;10.89;95.80
66343;DHT22;53144;51.524;5.080;2022-11-15T17:50:17;10.92;95.75
66343;DHT22;53144;51.524;5.080;2022-11-15T17:52:47;10.88;95.86
66343;DHT22;53144;51.524;5.080;2022-11-15T17:55:13;10.89;95.80
66343;DHT22;53144;51.524;5.080;2022-11-15T17:57:38;10.94;95.80
66343;DHT22;53144;51.524;5.080;2022-11-15T18:00:19;10.88;95.95
66343;DHT22;53144;51.524;5.080;2022-11-15T18:03:09;10.95;95.84
66343;DHT22;53144;51.524;5.080;2022-11-15T18:05:53;10.98;95.71
66343;DHT22;53144;51.524;5.080;2022-11-15T18:08:50;11.02;95.42
66343;DHT22;53144;51.524;5.080;2022-11-15T18:14:20;10.95;95.88
66343;DHT22;53144;51.524;5.080;2022-11-15T18:16:53;10.96;95.81
66343;DHT22;53144;51.524;5.080;2022-11-15T18:19:21;11.02;95.81
66343;DHT22;53144;51.524;5.080;2022-11-15T18:22:12;10.96;95.91
66343;DHT22;53144;51.524;5.080;2022-11-15T18:24:54;11.01;96.10
66343;DHT22;53144;51.524;5.080;2022-11-15T18:27:49;10.94;96.04
66343;DHT22;53144;51.524;5.080;2022-11-15T18:33:59;10.94;96.37
66343;DHT22;53144;51.524;5.080;2022-11-15T18:36:27;10.98;96.24
66343;DHT22;53144;51.524;5.080;2022-11-15T18:38:54;11.01;96.36
66343;DHT22;53144;51.524;5.080;2022-11-15T18:41:20;11.06;96.26
66343;DHT22;53144;51.524;5.080;2022-11-15T18:43:49;11.06;96.17
66343;DHT22;53144;51.524;5.080;2022-11-15T18:46:19;11.06;96.14
66343;DHT22;53144;51.524;5.080;2022-11-15T18:48:54;11.02;96.37
66343;DHT22;53144;51.524;5.080;2022-11-15T18:51:22;11.05;96.57
66343;DHT22;53144;51.524;5.080;2022-11-15T18:53:48;11.14;96.47
66343;DHT22;53144;51.524;5.080;2022-11-15T18:56:21;11.09;96.53
66343;DHT22;53144;51.524;5.080;2022-11-15T18:58:49;11.06;96.80
66343;DHT22;53144;51.524;5.080;2022-11-15T19:01:40;11.04;96.95
66343;DHT22;53144;51.524;5.080;2022-11-15T19:04:26;11.05;96.94
66343;DHT22;53144;51.524;5.080;2022-11-15T19:06:54;11.08;97.08
66343;DHT22;53144;51.524;5.080;2022-11-15T19:12:17;11.09;97.13
66343;DHT22;53144;51.524;5.080;2022-11-15T19:14:43;11.09;97.03
66343;DHT22;53144;51.524;5.080;2022-11-15T19:17:14;11.06;97.29
66343;DHT22;53144;51.524;5.080;2022-11-15T19:19:39;11.11;97.17